Time;durP1;ratioP1;P1;durP2;ratioP2;P2;SDS_P1;SDS_P2;PMS_P1;PMS_P2;Temp;Humidity;BMP_temperature;BMP_pressure;BME280_temperature;BME280_humidity;BME280_pressure;Samples;Min_cycle;Max_cycle;Signal;HPM_P1;HPM_P2
2023/05/08 00:01:53;;;;;;;14.17;12.57;;;;;;;4.88;73.15;98140.03;6237885;28;20234;-90
2023/05/08 00:04:55;;;;;;;13.90;12.47;;;;;;;6.18;73.93;98340.13;6238301;28;20656;-91
2023/05/08 00:08:00;;;;;;;13.93;12.27;;;;;;;5.52;73.50;98234.84;6237750;28;20237;-92
2023/05/08 00:11:02;;;;;;;13.40;12.03;;;;;;;6.24;73.60;98359.69;6237709;28;20227;-90
2023/05/08 00:14:04;;;;;;;13.10;11.77;;;;;;;5.85;74.10;98282.56;6237359;28;20233;-90
2023/05/08 00:17:07;;;;;;;13.13;11.43;;;;;;;5.75;72.44;98262.78;6222386;28;20591;-91
2023/05/08 00:20:09;;;;;;;14.57;12.53;;;;;;;4.03;72.27;97982.78;6237665;28;20238;-90
2023/05/08 00:23:12;;;;;;;14.40;12.17;;;;;;;4.74;72.98;98104.81;6220134;28;20238;-90
2023/05/08 00:26:14;;;;;;;14.30;12.60;;;;;;;6.18;72.40;98337.47;6238353;28;20393;-91
2023/05/08 00:29:16;;;;;;;14.20;12.70;;;;;;;5.02;71.53;98135.59;6238098;28;20568;-90
2023/05/08 00:32:18;;;;;;;13.10;11.70;;;;;;;6.62;71.70;98400.53;6222073;28;20238;-91
2023/05/08 00:35:21;;;;;;;12.03;10.73;;;;;;;6.27;71.61;98373.34;6221315;28;20600;-91
2023/05/08 00:38:23;;;;;;;11.50;9.53;;;;;;;5.92;71.63;98309.09;6221763;28;20531;-91
2023/05/08 00:41:26;;;;;;;10.83;9.73;;;;;;;4.25;70.81;98026.56;6237043;28;20235;-91
2023/05/08 00:44:28;;;;;;;10.80;9.43;;;;;;;6.28;71.27;98363.56;6236986;28;20224;-90
2023/05/08 00:47:31;;;;;;;11.33;9.00;;;;;;;6.17;71.63;98357.00;6221604;28;20242;-90
2023/05/08 00:50:34;;;;;;;10.33;8.57;;;;;;;5.81;71.58;98299.00;6237781;28;20242;-90
2023/05/08 00:53:39;;;;;;;10.40;8.97;;;;;;;6.22;70.94;98367.81;6221088;28;20238;-90
2023/05/08 00:56:42;;;;;;;10.60;8.73;;;;;;;5.64;70.77;98296.69;6237295;28;20244;-90
2023/05/08 00:59:46;;;;;;;9.77;8.37;;;;;;;6.00;70.90;98345.94;6220313;28;20303;-91
2023/05/08 01:02:48;;;;;;;9.40;8.40;;;;;;;5.66;70.91;98297.34;6236800;28;20227;-91
2023/05/08 01:05:50;;;;;;;9.60;8.53;;;;;;;5.46;71.35;98269.13;6220822;28;20319;-91
2023/05/08 01:08:52;;;;;;;10.27;8.63;;;;;;;4.10;71.13;98070.66;6237692;28;20725;-91
2023/05/08 01:11:58;;;;;;;12.50;8.70;;;;;;;6.39;71.31;98414.09;6219899;28;20277;-91
2023/05/08 01:15:22;;;;;;;10.93;8.87;;;;;;;6.33;70.82;98414.06;6217080;28;20236;-91
2023/05/08 01:18:37;;;;;;;10.17;9.13;;;;;;;5.63;70.84;98318.03;6219314;28;20250;-90
2023/05/08 01:21:59;;;;;;;10.97;9.43;;;;;;;5.57;72.02;98316.19;6231955;28;20421;-90
2023/05/08 01:25:23;;;;;;;11.40;8.93;;;;;;;6.24;71.90;98400.16;6243322;28;20239;-91
2023/05/08 01:28:34;;;;;;;11.17;9.43;;;;;;;6.22;71.96;98398.75;6219455;28;20232;-91
2023/05/08 01:31:57;;;;;;;10.53;9.43;;;;;;;5.90;72.36;98359.47;6220800;28;20238;-91
2023/05/08 01:35:13;;;;;;;10.43;9.37;;;;;;;6.23;71.83;98410.97;6231157;28;20231;-92
2023/05/08 01:38:47;;;;;;;13.03;9.60;;;;;;;5.76;71.66;98344.53;6216499;28;20249;-91
2023/05/08 01:42:27;;;;;;;10.03;9.00;;;;;;;5.54;72.07;98333.22;6234210;28;20234;-91
2023/05/08 01:45:37;;;;;;;10.83;9.70;;;;;;;6.17;71.65;98466.28;6218800;28;20226;-91
2023/05/08 01:48:48;;;;;;;10.70;9.60;;;;;;;5.80;71.70;98351.06;6236760;28;20242;-90
2023/05/08 01:52:02;;;;;;;10.10;8.93;;;;;;;6.15;72.39;98411.94;6220375;28;20644;-91
2023/05/08 01:55:15;;;;;;;10.57;9.53;;;;;;;5.17;72.65;98265.69;6214354;28;20648;-91
2023/05/08 01:58:18;;;;;;;10.53;9.43;;;;;;;5.02;72.17;98247.31;6230708;28;20251;-91
2023/05/08 02:01:23;;;;;;;11.83;9.90;;;;;;;6.10;72.33;98409.03;6211818;28;20280;-91
2023/05/08 02:04:27;;;;;;;11.57;10.37;;;;;;;6.13;72.11;98421.91;6216992;28;20240;-91
2023/05/08 02:07:30;;;;;;;11.27;10.07;;;;;;;5.81;72.25;98389.75;6236062;28;20327;-90
2023/05/08 02:10:33;;;;;;;10.90;9.47;;;;;;;5.59;72.35;98335.31;6219421;28;20239;-90
2023/05/08 02:13:37;;;;;;;13.00;8.77;;;;;;;5.74;72.68;98378.28;6235302;28;20241;-91
2023/05/08 02:16:42;;;;;;;11.13;9.63;;;;;;;5.37;72.76;98301.03;6235966;28;20245;-91
2023/05/08 02:19:46;;;;;;;10.80;9.70;;;;;;;5.40;72.35;98327.03;6219498;28;20713;-91
2023/05/08 02:22:50;;;;;;;13.90;9.73;;;;;;;4.58;71.74;98171.88;6217042;28;20227;-91
2023/05/08 02:25:54;;;;;;;12.97;10.70;;;;;;;4.64;71.61;98208.06;6234849;28;20538;-91
2023/05/08 02:28:57;;;;;;;11.13;9.97;;;;;;;5.73;71.33;98386.44;6235990;28;20226;-91
2023/05/08 02:32:02;;;;;;;13.20;9.87;;;;;;;4.85;71.70;98249.44;6233929;28;20221;-91
2023/05/08 02:35:05;;;;;;;10.50;9.43;;;;;;;5.33;72.12;98325.38;6252965;28;20265;-91
2023/05/08 02:38:09;;;;;;;11.33;10.13;;;;;;;5.72;72.14;98390.09;6235057;28;20245;-91
2023/05/08 02:41:14;;;;;;;12.00;9.60;;;;;;;5.63;72.36;98379.66;6219192;28;20724;-91
2023/05/08 02:44:17;;;;;;;11.10;10.00;;;;;;;5.29;72.11;98332.84;6234856;28;20230;-91
2023/05/08 02:47:28;;;;;;;11.37;10.17;;;;;;;5.16;72.25;98307.16;6221491;28;20273;-90
2023/05/08 02:50:57;;;;;;;12.00;10.70;;;;;;;6.01;72.68;98428.72;6217495;28;20227;-91
2023/05/08 02:54:09;;;;;;;10.53;9.43;;;;;;;5.99;72.59;98422.81;6230398;28;20622;-90
2023/05/08 02:57:29;;;;;;;9.83;8.83;;;;;;;5.99;72.86;98421.00;6219026;28;20222;-92
2023/05/08 03:00:39;;;;;;;12.87;10.27;;;;;;;6.00;72.70;98422.63;6213892;28;20625;-91
2023/05/08 03:03:48;;;;;;;13.47;10.13;;;;;;;5.32;72.24;98343.06;6225046;28;20246;-91
2023/05/08 03:06:55;;;;;;;11.37;10.10;;;;;;;5.72;72.15;98392.72;6216228;28;20734;-92
2023/05/08 03:10:06;;;;;;;10.67;9.53;;;;;;;4.50;71.48;98231.88;6234967;28;20318;-90
2023/05/08 03:13:11;;;;;;;12.27;9.73;;;;;;;4.40;71.85;98182.91;6231269;28;20644;-90
2023/05/08 03:16:22;;;;;;;11.33;9.23;;;;;;;5.49;71.96;98383.19;6230657;28;20230;-90
2023/05/08 03:19:32;;;;;;;9.70;8.70;;;;;;;5.91;72.26;98443.13;6217706;28;20247;-91
2023/05/08 03:22:40;;;;;;;10.53;9.43;;;;;;;5.61;72.81;98394.88;6234234;28;20234;-91
2023/05/08 03:25:43;;;;;;;11.10;9.63;;;;;;;4.24;71.88;98182.34;6218312;28;20241;-90
2023/05/08 03:28:51;;;;;;;11.67;10.00;;;;;;;5.90;72.14;98433.50;6232971;28;20222;-90
2023/05/08 03:32:00;;;;;;;10.07;8.83;;;;;;;5.86;71.96;98432.28;6233768;28;20329;-90
2023/05/08 03:35:04;;;;;;;10.07;8.47;;;;;;;5.38;72.77;98366.06;6219102;28;20244;-91
2023/05/08 03:38:07;;;;;;;11.70;9.40;;;;;;;5.51;72.38;98391.75;6240311;28;20225;-91
2023/05/08 03:41:11;;;;;;;9.17;8.20;;;;;;;5.69;72.68;98433.56;6235691;28;20228;-90
2023/05/08 03:44:13;;;;;;;9.77;8.77;;;;;;;5.43;73.42;98403.28;6238818;28;20300;-91
2023/05/08 03:47:17;;;;;;;10.53;9.40;;;;;;;5.81;72.63;98437.34;6238375;28;20234;-91
2023/05/08 03:50:19;;;;;;;8.80;7.83;;;;;;;5.07;72.70;98345.25;6238165;28;20753;-90
2023/05/08 03:53:22;;;;;;;10.17;9.17;;;;;;;5.81;72.44;98444.41;6222346;28;20649;-91
2023/05/08 03:56:24;;;;;;;13.23;9.23;;;;;;;3.41;71.98;98087.03;6238083;28;20225;-90
2023/05/08 03:59:43;;;;;;;8.77;7.87;;;;;;;5.78;72.35;98465.97;6238133;28;20246;-90
2023/05/08 04:03:01;;;;;;;10.20;8.40;;;;;;;4.89;72.50;98308.78;6221571;28;20224;-91
2023/05/08 04:06:29;;;;;;;9.20;8.00;;;;;;;5.80;72.13;98434.88;6212051;28;20252;-90
2023/05/08 04:09:57;;;;;;;8.80;7.50;;;;;;;5.88;72.03;98442.66;6221179;28;20262;-91
2023/05/08 04:13:26;;;;;;;10.30;7.37;;;;;;;5.09;72.15;98337.97;6217801;28;20269;-91
2023/05/08 04:16:34;;;;;;;9.10;7.33;;;;;;;5.89;71.65;98453.03;6228236;28;20383;-91
2023/05/08 04:19:45;;;;;;;7.90;7.07;;;;;;;4.64;71.40;98281.13;6221996;28;20232;-90
2023/05/08 04:22:50;;;;;;;9.80;6.97;;;;;;;4.81;72.13;98331.81;6236316;28;20229;-90
2023/05/08 04:25:54;;;;;;;12.30;7.70;;;;;;;5.38;72.32;98410.97;6243579;28;20267;-90
2023/05/08 04:28:57;;;;;;;11.87;8.83;;;;;;;5.55;72.18;98442.41;6237462;28;20225;-89
2023/05/08 04:32:00;;;;;;;10.30;8.00;;;;;;;4.18;72.28;98202.34;6238287;28;20227;-93
2023/05/08 04:35:03;;;;;;;8.83;7.53;;;;;;;5.55;71.65;98424.72;6220668;28;20755;-91
2023/05/08 04:38:05;;;;;;;9.37;8.00;;;;;;;5.47;71.80;98426.66;6237060;28;20334;-91
2023/05/08 04:41:08;;;;;;;8.63;7.60;;;;;;;5.09;71.59;98359.09;6221145;28;20286;-92
2023/05/08 04:44:11;;;;;;;9.17;7.57;;;;;;;5.49;72.65;98433.41;6236960;28;20220;-91
2023/05/08 04:47:14;;;;;;;9.57;7.93;;;;;;;3.57;72.10;98114.97;6235884;28;20237;-91
2023/05/08 04:50:16;;;;;;;9.13;7.47;;;;;;;4.84;71.98;98319.06;6221178;28;20228;-91
2023/05/08 04:53:18;;;;;;;9.40;8.10;;;;;;;5.92;71.65;98499.47;6233544;28;20228;-91
2023/05/08 04:56:21;;;;;;;10.03;7.57;;;;;;;5.38;71.53;98389.84;6220704;28;20232;-91
2023/05/08 04:59:24;;;;;;;9.23;7.67;;;;;;;4.22;71.85;98214.16;6232860;28;20601;-91
2023/05/08 05:02:27;;;;;;;10.80;8.33;;;;;;;5.55;71.61;98431.81;6236916;28;20538;-91
2023/05/08 05:05:30;;;;;;;8.40;7.50;;;;;;;5.67;71.71;98441.69;6241181;28;20569;-91
2023/05/08 05:08:32;;;;;;;8.00;7.13;;;;;;;4.09;71.66;98206.94;6253684;28;20660;-92
2023/05/08 05:11:35;;;;;;;8.07;7.27;;;;;;;5.70;71.03;98438.66;6236964;28;20231;-92
2023/05/08 05:14:37;;;;;;;11.50;7.77;;;;;;;5.28;71.43;98389.34;6221515;28;20225;-91
2023/05/08 05:17:40;;;;;;;9.27;7.37;;;;;;;6.06;71.30;98535.59;6220960;28;20227;-91
2023/05/08 05:20:42;;;;;;;10.87;7.77;;;;;;;5.67;71.31;98460.22;6234974;28;20268;-91
2023/05/08 05:23:45;;;;;;;8.87;7.50;;;;;;;5.43;71.47;98415.69;6233277;28;20372;-91
2023/05/08 05:26:47;;;;;;;9.33;7.47;;;;;;;6.06;70.91;98503.88;6233535;28;20249;-91
2023/05/08 05:29:50;;;;;;;8.37;7.50;;;;;;;5.56;70.98;98431.63;6238473;28;20237;-92
2023/05/08 05:32:52;;;;;;;8.70;7.43;;;;;;;4.27;70.66;98242.59;6236505;28;20312;-91
2023/05/08 05:35:54;;;;;;;9.57;7.43;;;;;;;5.58;71.04;98479.03;6235984;28;20611;-91
2023/05/08 05:38:57;;;;;;;8.53;7.10;;;;;;;4.28;71.60;98239.78;6235953;28;20261;-91
2023/05/08 05:42:00;;;;;;;9.17;7.47;;;;;;;4.29;71.79;98227.44;6236996;28;20233;-92
2023/05/08 05:45:02;;;;;;;8.87;6.93;;;;;;;4.09;71.40;98246.50;6218825;28;20685;-91
2023/05/08 05:48:06;;;;;;;9.37;7.83;;;;;;;5.82;71.16;98481.28;6236569;28;20750;-92
2023/05/08 05:51:08;;;;;;;8.53;7.63;;;;;;;6.06;71.96;98527.66;6220423;28;20466;-92
2023/05/08 05:54:11;;;;;;;8.80;6.67;;;;;;;6.08;71.42;98511.59;6235972;28;20238;-91
2023/05/08 05:57:13;;;;;;;7.43;6.73;;;;;;;5.20;71.97;98370.97;6235588;28;20709;-91
2023/05/08 06:00:17;;;;;;;7.93;6.87;;;;;;;5.47;71.67;98416.09;6220149;28;20307;-91
2023/05/08 06:03:23;;;;;;;8.23;6.50;;;;;;;4.94;71.45;98323.22;6235098;28;20249;-91
2023/05/08 06:06:25;;;;;;;9.30;6.87;;;;;;;6.27;71.49;98549.78;6219477;28;20230;-91
2023/05/08 06:09:27;;;;;;;7.20;6.50;;;;;;;6.33;72.18;98530.50;6235760;28;20332;-92
2023/05/08 06:12:30;;;;;;;7.23;6.40;;;;;;;5.98;71.59;98474.91;6221173;28;20237;-91
2023/05/08 06:15:33;;;;;;;6.87;6.17;;;;;;;6.47;72.01;98532.22;6237365;28;20262;-91
2023/05/08 06:18:36;;;;;;;7.93;6.87;;;;;;;4.90;71.25;98286.63;6237754;28;20245;-92
2023/05/08 06:21:38;;;;;;;6.50;5.80;;;;;;;6.49;69.90;98546.06;6236141;28;20245;-91
2023/05/08 06:24:40;;;;;;;6.40;5.80;;;;;;;4.77;70.72;98278.59;6233397;28;20246;-91
2023/05/08 06:27:42;;;;;;;7.13;6.17;;;;;;;6.56;70.74;98531.06;6236029;28;20317;-91
2023/05/08 06:30:45;;;;;;;7.27;5.73;;;;;;;5.88;71.39;98434.72;6220354;28;20268;-92
2023/05/08 06:33:47;;;;;;;7.97;6.03;;;;;;;5.72;68.91;98358.38;6252651;28;20235;-91
2023/05/08 06:36:49;;;;;;;6.77;5.93;;;;;;;6.24;67.58;98453.09;6235508;28;20336;-91
2023/05/08 06:39:51;;;;;;;7.10;6.23;;;;;;;6.83;68.44;98518.75;6223055;28;20246;-91
2023/05/08 06:43:12;;;;;;;6.80;5.90;;;;;;;6.32;68.70;98434.41;6215286;28;20246;-91
2023/05/08 06:46:14;;;;;;;6.37;5.77;;;;;;;6.38;69.35;98438.09;6217784;28;20726;-92
2023/05/08 06:49:17;;;;;;;6.30;5.70;;;;;;;6.79;68.40;98492.84;6234541;28;20872;-92
2023/05/08 06:52:19;;;;;;;6.90;5.80;;;;;;;6.81;67.74;98491.66;6217919;28;20232;-92
2023/05/08 06:55:22;;;;;;;6.17;5.57;;;;;;;7.16;67.43;98534.78;6233952;28;20611;-92
2023/05/08 06:58:27;;;;;;;6.67;5.13;;;;;;;7.19;67.57;98537.06;6235467;28;20253;-91
2023/05/08 07:01:29;;;;;;;5.87;5.10;;;;;;;6.37;67.99;98400.25;6231296;28;20730;-85
2023/05/08 07:04:31;;;;;;;4.80;4.30;;;;;;;7.13;67.31;98481.38;6233663;28;20241;-85
2023/05/08 07:07:34;;;;;;;6.23;5.13;;;;;;;7.19;66.26;98473.44;6218158;28;20731;-85
2023/05/08 07:10:36;;;;;;;5.80;4.97;;;;;;;6.91;65.09;98420.59;6234009;28;20325;-85
2023/05/08 07:13:38;;;;;;;6.80;5.93;;;;;;;6.72;67.02;98446.00;6230269;28;20745;-85
2023/05/08 07:16:39;;;;;;;6.03;5.37;;;;;;;7.48;66.84;98535.06;6234147;28;20316;-85
2023/05/08 07:19:42;;;;;;;6.63;5.80;;;;;;;7.03;65.96;98465.84;6252307;28;20240;-85
2023/05/08 07:22:45;;;;;;;6.87;5.33;;;;;;;6.71;67.66;98436.44;6232851;28;20815;-85
2023/05/08 07:25:47;;;;;;;5.80;5.20;;;;;;;7.00;67.70;98466.28;6217363;28;20310;-85
2023/05/08 07:28:53;;;;;;;4.87;4.47;;;;;;;7.44;65.32;98547.94;6232642;28;20234;-85
2023/05/08 07:31:55;;;;;;;5.93;5.10;;;;;;;7.12;65.26;98472.59;6225102;28;20682;-84
2023/05/08 07:34:57;;;;;;;6.07;4.50;;;;;;;7.49;65.49;98534.88;6234135;28;20332;-87
2023/05/08 07:37:59;;;;;;;4.90;4.30;;;;;;;7.78;64.94;98547.97;6216933;28;20707;-87
2023/05/08 07:41:01;;;;;;;5.57;4.97;;;;;;;7.83;64.65;98542.88;6234115;28;20718;-87
2023/05/08 07:44:03;;;;;;;6.07;4.47;;;;;;;7.12;63.71;98426.75;6233246;28;20273;-87
2023/05/08 07:47:05;;;;;;;6.03;4.93;;;;;;;8.06;64.10;98559.22;6239281;28;20328;-86
2023/05/08 07:50:08;;;;;;;4.93;4.43;;;;;;;7.93;62.92;98552.09;6233541;28;20813;-86
2023/05/08 07:53:10;;;;;;;6.27;5.30;;;;;;;7.01;63.82;98404.31;6216487;28;20281;-86
2023/05/08 07:56:12;;;;;;;5.13;4.30;;;;;;;7.66;64.36;98465.56;6249754;28;20259;-87
2023/05/08 07:59:14;;;;;;;5.37;4.83;;;;;;;7.79;62.59;98449.66;6248415;28;20724;-87
2023/05/08 08:02:16;;;;;;;5.47;4.97;;;;;;;8.27;62.63;98529.00;6232902;28;20322;-86
2023/05/08 08:05:18;;;;;;;5.20;4.60;;;;;;;8.06;62.41;98494.72;6232550;28;20609;-86
2023/05/08 08:08:20;;;;;;;5.23;4.63;;;;;;;8.00;62.63;98494.53;6232060;28;20277;-87
2023/05/08 08:11:22;;;;;;;6.83;4.70;;;;;;;7.91;62.40;98418.00;6216851;28;20621;-86
2023/05/08 08:14:24;;;;;;;8.13;4.80;;;;;;;8.73;61.82;98514.84;6232718;28;20230;-86
2023/05/08 08:17:26;;;;;;;5.00;4.37;;;;;;;7.88;60.38;98365.34;6217999;28;20852;-87
2023/05/08 08:20:29;;;;;;;6.53;4.77;;;;;;;8.66;61.85;98492.78;6229961;28;20653;-87
2023/05/08 08:23:32;;;;;;;7.53;5.90;;;;;;;8.58;62.72;98524.91;6233914;28;20258;-87
2023/05/08 08:26:34;;;;;;;6.20;5.60;;;;;;;8.09;63.87;98489.84;6220930;28;20325;-86
2023/05/08 08:29:36;;;;;;;7.43;6.07;;;;;;;8.28;62.99;98543.91;6238513;28;20238;-86
2023/05/08 08:32:38;;;;;;;6.60;5.43;;;;;;;8.36;64.71;98527.78;6231613;28;20396;-87
2023/05/08 08:35:40;;;;;;;7.40;5.47;;;;;;;7.29;63.07;98352.97;6233194;28;20321;-88
2023/05/08 08:38:42;;;;;;;9.57;6.10;;;;;;;8.27;62.96;98529.84;6219019;28;20581;-87
2023/05/08 08:41:44;;;;;;;6.37;5.40;;;;;;;8.46;64.33;98541.47;6236171;28;20373;-87
2023/05/08 08:44:47;;;;;;;6.33;5.43;;;;;;;8.66;62.75;98554.69;6216924;28;20230;-87
2023/05/08 08:47:51;;;;;;;5.83;5.23;;;;;;;8.35;63.55;98522.66;6219510;28;20234;-87
2023/05/08 08:50:58;;;;;;;5.90;5.30;;;;;;;8.17;61.95;98448.97;6237280;28;20243;-87
2023/05/08 08:54:10;;;;;;;5.23;4.57;;;;;;;8.42;63.08;98460.59;6236040;28;20239;-88
2023/05/08 08:57:14;;;;;;;7.03;4.80;;;;;;;8.87;62.21;98543.00;6219480;28;20265;-87
2023/05/08 09:00:18;;;;;;;5.10;4.60;;;;;;;8.59;63.34;98470.75;6235186;28;20678;-87
2023/05/08 09:03:20;;;;;;;5.30;4.80;;;;;;;8.82;60.82;98492.34;6218203;28;20212;-86
2023/05/08 09:06:22;;;;;;;5.13;4.53;;;;;;;8.93;60.91;98526.22;6236438;28;20223;-87
2023/05/08 09:09:25;;;;;;;5.60;5.00;;;;;;;9.10;60.44;98521.25;6220030;28;20226;-87
2023/05/08 09:12:27;;;;;;;5.47;4.97;;;;;;;8.76;59.63;98471.91;6220375;28;20603;-88
2023/05/08 09:15:31;;;;;;;5.60;4.73;;;;;;;9.09;60.58;98548.03;6234825;28;20270;-87
2023/05/08 09:18:33;;;;;;;4.77;4.27;;;;;;;7.47;60.21;98290.38;6221054;28;20673;-87
2023/05/08 09:21:36;;;;;;;5.80;4.90;;;;;;;8.85;62.42;98493.75;6222919;28;20219;-87
2023/05/08 09:24:58;;;;;;;5.80;5.20;;;;;;;9.16;60.19;98516.91;6254759;28;20230;-87
2023/05/08 09:28:24;;;;;;;6.20;5.27;;;;;;;8.78;60.64;98457.41;6226397;28;20228;-87
2023/05/08 09:31:41;;;;;;;5.07;4.57;;;;;;;8.99;60.05;98484.69;6232093;28;20613;-87
2023/05/08 09:34:51;;;;;;;5.70;4.80;;;;;;;8.40;60.65;98398.91;6217739;28;20578;-87
2023/05/08 09:37:53;;;;;;;5.33;4.83;;;;;;;9.43;59.61;98522.94;6219804;28;20259;-88
2023/05/08 09:41:15;;;;;;;5.67;4.60;;;;;;;9.14;57.99;98447.22;6236701;28;20335;-87
2023/05/08 09:44:17;;;;;;;5.40;4.90;;;;;;;9.98;60.04;98536.47;6234840;28;20601;-87
2023/05/08 09:47:23;;;;;;;8.00;5.27;;;;;;;10.28;58.76;98541.97;6234828;28;20237;-88
2023/05/08 09:50:26;;;;;;;5.50;5.00;;;;;;;10.35;58.74;98545.41;6234621;28;20663;-87
2023/05/08 09:53:31;;;;;;;4.57;4.17;;;;;;;10.08;59.02;98510.16;6219632;28;20232;-87
2023/05/08 09:56:38;;;;;;;5.33;4.67;;;;;;;10.57;59.45;98533.31;6217902;28;20681;-88
2023/05/08 09:59:40;;;;;;;5.03;4.63;;;;;;;10.27;58.50;98481.78;6218413;28;20260;-89
2023/05/08 10:03:02;;;;;;;5.73;4.97;;;;;;;9.35;59.61;98326.41;6233614;28;20257;-89
2023/05/08 10:06:13;;;;;;;6.00;4.83;;;;;;;10.37;57.71;98487.41;6231007;28;20303;-88
2023/05/08 10:09:15;;;;;;;4.80;4.40;;;;;;;9.93;57.71;98414.69;6246987;28;20206;-88
2023/05/08 10:12:20;;;;;;;5.40;4.90;;;;;;;10.55;57.08;98522.06;6215734;28;20218;-84
2023/05/08 10:15:24;;;;;;;6.60;4.73;;;;;;;10.65;57.58;98526.06;6226838;28;20236;-84
2023/05/08 10:18:33;;;;;;;6.03;4.00;;;;;;;10.61;57.63;98525.69;6249484;28;20551;-83
2023/05/08 10:21:37;;;;;;;5.40;4.27;;;;;;;10.64;56.43;98503.09;6221612;28;20237;-83
2023/05/08 10:24:40;;;;;;;4.73;4.33;;;;;;;10.67;57.73;98492.81;6250809;28;20244;-83
2023/05/08 10:27:57;;;;;;;5.17;4.67;;;;;;;10.85;57.15;98513.34;6218092;28;20237;-83
2023/05/08 10:31:01;;;;;;;6.60;4.20;;;;;;;10.63;57.82;98506.81;6217399;28;20225;-83
2023/05/08 10:34:04;;;;;;;5.63;5.07;;;;;;;10.80;57.14;98486.53;6227219;28;20226;-83
2023/05/08 10:37:10;;;;;;;6.13;4.87;;;;;;;10.76;59.48;98485.34;6235439;28;20240;-82
2023/05/08 10:40:14;;;;;;;5.80;4.87;;;;;;;10.75;58.95;98479.22;6234879;28;20238;-83
2023/05/08 10:43:18;;;;;;;6.43;4.80;;;;;;;11.17;57.21;98497.13;6234304;28;20235;-83
2023/05/08 10:46:36;;;;;;;5.83;4.60;;;;;;;9.82;58.24;98266.41;6233141;28;20360;-82
2023/05/08 10:49:48;;;;;;;5.00;4.50;;;;;;;11.01;55.74;98446.06;6232423;28;20245;-83
2023/05/08 10:52:59;;;;;;;4.97;4.47;;;;;;;11.39;55.69;98468.13;6237121;28;20398;-84
2023/05/08 10:56:01;;;;;;;5.30;4.57;;;;;;;11.69;54.80;98460.88;6235310;28;20227;-83
2023/05/08 10:59:05;;;;;;;3.97;3.67;;;;;;;11.37;55.78;98425.66;6218232;28;20599;-82
2023/05/08 11:02:07;;;;;;;3.80;3.50;;;;;;;11.59;56.80;98433.97;6217649;28;20230;-84
2023/05/08 11:05:17;;;;;;;4.90;4.30;;;;;;;11.81;53.45;98461.72;6230328;28;20231;-93
2023/05/08 11:08:26;;;;;;;4.60;4.07;;;;;;;11.11;53.64;98353.00;6230424;28;20242;-92
2023/05/08 11:11:37;;;;;;;5.57;4.00;;;;;;;11.73;54.14;98464.72;6236300;28;20234;-92
2023/05/08 11:14:43;;;;;;;5.43;3.50;;;;;;;11.21;54.21;98362.31;6234647;28;20269;-91
2023/05/08 11:17:53;;;;;;;4.80;3.73;;;;;;;11.20;52.72;98337.50;6237031;28;20456;-92
2023/05/08 11:21:03;;;;;;;5.37;3.83;;;;;;;11.92;53.36;98445.97;6229548;28;20261;-91
2023/05/08 11:24:10;;;;;;;5.43;4.00;;;;;;;12.22;53.43;98427.97;6232824;28;20228;-92
2023/05/08 11:27:14;;;;;;;4.63;4.23;;;;;;;11.97;52.50;98371.31;6214566;28;20223;-92
2023/05/08 11:30:20;;;;;;;4.40;4.00;;;;;;;12.17;53.55;98419.84;6246265;28;20225;-93
2023/05/08 11:33:29;;;;;;;4.70;4.07;;;;;;;12.13;52.45;98416.84;6223235;28;20238;-92
2023/05/08 11:36:35;;;;;;;4.17;3.77;;;;;;;11.99;52.37;98395.94;6216678;28;20223;-92
2023/05/08 11:39:38;;;;;;;8.07;3.80;;;;;;;12.03;51.93;98378.41;6234669;28;20227;-93
2023/05/08 11:42:40;;;;;;;4.60;4.00;;;;;;;11.87;51.76;98326.50;6231622;28;20230;-92
2023/05/08 11:45:42;;;;;;;5.40;3.53;;;;;;;12.48;51.13;98375.06;6218272;28;20369;-93
2023/05/08 11:48:44;;;;;;;3.47;3.17;;;;;;;12.49;50.79;98377.50;6213765;28;20699;-92
2023/05/08 11:51:54;;;;;;;3.97;3.10;;;;;;;11.25;50.60;98182.13;6221969;28;20229;-92
2023/05/08 11:55:10;;;;;;;2.87;2.67;;;;;;;11.59;51.04;98212.47;6230924;28;20591;-93
2023/05/08 11:58:13;;;;;;;4.60;3.50;;;;;;;11.84;50.06;98204.19;6237729;28;20231;-92
2023/05/08 12:01:21;;;;;;;3.40;3.10;;;;;;;11.54;50.64;98167.00;6239877;28;20233;-93
2023/05/08 12:04:24;;;;;;;3.03;2.83;;;;;;;13.25;51.36;98455.75;6241163;28;20239;-93
2023/05/08 12:07:26;;;;;;;5.10;3.40;;;;;;;12.02;49.90;98254.75;6239474;28;20242;-93
2023/05/08 12:10:28;;;;;;;3.53;3.20;;;;;;;12.06;50.85;98271.09;6238475;28;20242;-94
2023/05/08 12:13:31;;;;;;;4.47;3.27;;;;;;;13.22;51.40;98447.38;6242598;28;20211;-94
2023/05/08 12:21:47;;;;;;;3.23;2.90;;;;;;;13.42;51.87;98469.97;6099874;29;20243;-93
2023/05/08 12:24:50;;;;;;;2.90;2.70;;;;;;;12.20;49.93;98220.91;6089768;29;20726;-93
2023/05/08 12:27:53;;;;;;;3.80;3.00;;;;;;;13.34;52.91;98383.91;6109084;29;20235;-93
2023/05/08 12:30:55;;;;;;;3.37;3.07;;;;;;;10.75;51.27;97993.38;6080333;29;20764;-92
2023/05/08 12:33:58;;;;;;;3.20;2.90;;;;;;;12.95;52.44;98332.91;6092917;29;20233;-92
2023/05/08 12:37:03;;;;;;;3.43;2.47;;;;;;;12.52;51.17;98247.94;6091114;29;20231;-93
2023/05/08 12:40:21;;;;;;;3.60;3.30;;;;;;;13.99;49.05;98466.38;6090418;29;20262;-93
2023/05/08 12:43:34;;;;;;;3.13;2.77;;;;;;;13.69;49.05;98405.06;6089433;29;20240;-93
2023/05/08 12:46:45;;;;;;;3.50;3.20;;;;;;;13.42;49.63;98389.66;6074752;29;20786;-93
2023/05/08 12:49:49;;;;;;;3.60;2.83;;;;;;;11.86;49.25;98101.44;6093626;29;20223;-92
2023/05/08 12:52:52;;;;;;;3.07;2.70;;;;;;;13.98;50.74;98440.59;6092855;29;20242;-93
2023/05/08 12:55:56;;;;;;;3.10;2.80;;;;;;;13.34;51.07;98352.59;6096595;28;20729;-93
2023/05/08 12:58:58;;;;;;;3.33;2.70;;;;;;;13.09;50.48;98326.19;6240551;28;20254;-93
2023/05/08 13:02:00;;;;;;;2.63;2.43;;;;;;;12.56;49.66;98241.88;6234203;28;20256;-92
2023/05/08 13:05:04;;;;;;;3.97;2.70;;;;;;;13.39;49.52;98335.81;6232918;28;20738;-93
2023/05/08 13:08:09;;;;;;;2.77;2.50;;;;;;;14.14;49.52;98428.28;6239192;28;20230;-92
2023/05/08 13:11:12;;;;;;;3.33;2.53;;;;;;;13.63;48.72;98325.75;6241835;28;20722;-92
2023/05/08 13:14:15;;;;;;;3.20;2.90;;;;;;;12.64;49.14;98198.69;6231480;28;20628;-92
2023/05/08 13:17:18;;;;;;;3.00;2.80;;;;;;;13.99;48.34;98375.28;6247491;28;20253;-92
2023/05/08 13:20:20;;;;;;;2.73;2.43;;;;;;;13.66;48.42;98318.03;6246405;28;20234;-92
2023/05/08 13:23:23;;;;;;;5.10;2.50;;;;;;;14.23;48.80;98399.16;6230062;28;20287;-92
2023/05/08 13:26:25;;;;;;;4.77;2.73;;;;;;;13.47;49.76;98279.19;6235543;28;20235;-93
2023/05/08 13:29:27;;;;;;;3.90;2.83;;;;;;;13.68;49.08;98280.28;6236576;28;20594;-93
2023/05/08 13:32:30;;;;;;;2.97;2.50;;;;;;;12.41;50.00;98091.97;6230999;28;20321;-94
2023/05/08 13:35:33;;;;;;;3.07;2.50;;;;;;;14.63;48.49;98396.22;6251827;28;20230;-92
2023/05/08 13:38:35;;;;;;;2.90;2.60;;;;;;;14.54;46.86;98400.41;6231797;28;20730;-93
2023/05/08 13:41:37;;;;;;;3.57;2.50;;;;;;;13.79;47.04;98267.84;6234974;28;20598;-93
2023/05/08 13:44:40;;;;;;;6.13;2.37;;;;;;;13.85;48.94;98294.47;6230989;28;20234;-93
2023/05/08 13:47:42;;;;;;;2.50;2.30;;;;;;;14.40;47.86;98355.19;6231780;28;20227;-92
2023/05/08 13:50:44;;;;;;;2.83;2.47;;;;;;;14.31;48.17;98343.28;6235672;28;20612;-92
2023/05/08 13:53:46;;;;;;;3.17;2.60;;;;;;;14.43;48.11;98353.84;6238869;28;20227;-92
2023/05/08 13:56:49;;;;;;;2.67;2.20;;;;;;;14.36;48.63;98345.22;6246518;28;20594;-92
2023/05/08 13:59:51;;;;;;;3.47;2.60;;;;;;;14.40;47.92;98333.72;6230163;28;20454;-92
2023/05/08 14:02:53;;;;;;;3.50;2.50;;;;;;;14.42;48.54;98349.56;6226334;28;20238;-92
2023/05/08 14:05:56;;;;;;;3.40;2.40;;;;;;;14.20;49.63;98301.34;6247430;28;20592;-93
2023/05/08 14:08:58;;;;;;;2.77;2.50;;;;;;;14.12;47.57;98262.38;6230126;28;20246;-92
2023/05/08 14:12:00;;;;;;;2.50;2.30;;;;;;;14.67;47.67;98351.75;6224012;28;20231;-91
2023/05/08 14:15:04;;;;;;;2.60;2.40;;;;;;;14.35;47.26;98311.44;6229404;28;20231;-92
2023/05/08 14:18:07;;;;;;;2.13;1.93;;;;;;;14.49;50.35;98317.25;6234749;28;20224;-93
2023/05/08 14:21:09;;;;;;;3.60;2.20;;;;;;;14.64;47.70;98342.34;6250415;28;20236;-93
2023/05/08 14:24:11;;;;;;;2.70;2.50;;;;;;;13.14;47.13;98098.91;6246669;28;20688;-93
2023/05/08 14:27:14;;;;;;;3.03;2.60;;;;;;;14.99;47.04;98391.28;6229158;28;20222;-93
2023/05/08 14:30:17;;;;;;;2.67;2.30;;;;;;;14.40;47.61;98339.09;6231080;28;20419;-93
2023/05/08 14:33:19;;;;;;;3.03;2.50;;;;;;;13.60;47.92;98195.88;6248164;28;20211;-92
2023/05/08 14:36:22;;;;;;;2.30;2.10;;;;;;;14.66;49.55;98342.91;6226630;28;20218;-93
2023/05/08 14:39:24;;;;;;;1.93;1.83;;;;;;;13.94;49.84;98244.78;6231038;28;20234;-92
2023/05/08 14:42:27;;;;;;;2.90;2.30;;;;;;;14.55;51.47;98319.72;6221982;28;20230;-93